Rohrs, Nebraska
Current Conditions -  °F | °C
As of 10:15 AM on Saturday 25 Oct 2014 (Local Time) from KAFK Reporting Station
Clear Clear  
Wind Chill: 60°   Ceiling: Unl
Heat Index: 60°   Visibility: 10mi
Dew Point: 47°   Wind: 6mph
Humidity: 63%   Direction: 30°NNE
Pressure: 30.11"   Gusts: NA
Location:  40.3314°N, 95.8994°W
Report Text: KAFK 251515Z AUTO 03005KT 10SM CLR 16/09 A3011 RMK AO2 T01550085
Loading
Personal Weather Stations






























Interactive Weather Map
Tropical Storm Tracking
New forecast layout! Learn more

10-Day Weather Forecast

Advertisements
Track Severe Weather on mobile